Terminal Aerodrome Forecast
Issued by NWS

Home | Current Version | Previous Version | Text Only | Print | Product List | Glossary On
Versions: 1 2 3 4 5 6 7 8 9 10 11 12 13 14 15 16 17 18 19 20 21 22 23 24
000
FTUS43 KDLH 282300 RRA
TAFHYR
TAF
KHYR 282353Z 2900/2924 13004KT P6SM SCT025 OVC050
      TEMPO 2901/2905 5SM -PLSN BR BKN025
     FM290500 15005KT 6SM BR VCSH OVC025
     FM291000 14004KT 4SM BR OVC012
     FM291500 27006KT P6SM VCSH BKN015
     FM292000 21006KT P6SM SCT015 BKN060=

USA.gov is the U.S. government's official web portal to all federal, state and local government web resources and services.